createdAt,value
2019-01-18T00:00:39.581Z,-70
2019-01-18T00:01:39.472Z,-71
2019-01-18T00:02:39.585Z,-71
2019-01-18T00:03:39.473Z,-71
2019-01-18T00:04:39.610Z,-70
2019-01-18T00:05:39.477Z,-71
2019-01-18T00:06:39.591Z,-70
2019-01-18T00:07:39.475Z,-71
2019-01-18T00:08:39.594Z,-71
2019-01-18T00:09:39.501Z,-70
2019-01-18T00:10:39.594Z,-70
2019-01-18T00:11:39.479Z,-70
2019-01-18T00:12:39.593Z,-69
2019-01-18T00:13:39.480Z,-70
2019-01-18T00:14:39.623Z,-69
2019-01-18T00:15:39.482Z,-70
2019-01-18T00:16:39.600Z,-70
2019-01-18T00:17:39.484Z,-70
2019-01-18T00:18:39.600Z,-69
2019-01-18T00:19:39.510Z,-70
2019-01-18T00:20:39.600Z,-70
2019-01-18T00:21:39.492Z,-71
2019-01-18T00:22:39.602Z,-70
2019-01-18T00:23:39.489Z,-71
2019-01-18T00:24:39.627Z,-71
2019-01-18T00:25:39.491Z,-71
2019-01-18T00:26:39.608Z,-70
2019-01-18T00:27:39.491Z,-70
2019-01-18T00:28:39.624Z,-70
2019-01-18T00:29:39.517Z,-71
2019-01-18T00:30:39.615Z,-71
2019-01-18T00:31:39.502Z,-71
2019-01-18T00:32:39.610Z,-71
2019-01-18T00:33:39.500Z,-71
2019-01-18T00:34:39.645Z,-71
2019-01-18T00:35:39.498Z,-71
2019-01-18T00:36:39.613Z,-71
2019-01-18T00:37:39.498Z,-71
2019-01-18T00:38:39.616Z,-70
2019-01-18T00:39:39.524Z,-71
2019-01-18T00:40:39.625Z,-71
2019-01-18T00:41:39.503Z,-71
2019-01-18T00:42:39.617Z,-70
2019-01-18T00:43:39.506Z,-71
2019-01-18T00:44:39.645Z,-71
2019-01-18T00:45:39.505Z,-71
2019-01-18T00:46:39.624Z,-72
2019-01-18T00:47:39.508Z,-72
2019-01-18T00:48:39.625Z,-72
2019-01-18T00:49:39.532Z,-73
2019-01-18T00:50:39.625Z,-73
2019-01-18T00:51:39.511Z,-73
2019-01-18T00:52:39.626Z,-73
2019-01-18T00:53:39.511Z,-73
2019-01-18T00:54:39.671Z,-72
2019-01-18T00:55:39.513Z,-73
2019-01-18T00:56:39.627Z,-72
2019-01-18T00:57:39.516Z,-72
2019-01-18T00:58:39.633Z,-73
2019-01-18T00:59:39.517Z,-73
2019-01-18T01:00:39.660Z,-73
2019-01-18T01:01:39.519Z,-73
2019-01-18T01:02:39.631Z,-73
2019-01-18T01:03:39.521Z,-73
2019-01-18T01:04:39.637Z,-73
2019-01-18T01:05:39.545Z,-73
2019-01-18T01:06:39.636Z,-73
2019-01-18T01:07:39.524Z,-73
2019-01-18T01:08:39.640Z,-73
2019-01-18T01:09:39.524Z,-73
2019-01-18T01:10:39.668Z,-72
2019-01-18T01:11:39.528Z,-72
2019-01-18T01:12:39.640Z,-72
2019-01-18T01:13:39.531Z,-72
2019-01-18T01:14:39.643Z,-72
2019-01-18T01:15:39.553Z,-72
2019-01-18T01:16:39.644Z,-72
2019-01-18T01:17:39.531Z,-73
2019-01-18T01:18:39.696Z,-72
2019-01-18T01:19:39.537Z,-72
2019-01-18T01:20:39.670Z,-72
2019-01-18T01:21:39.535Z,-72
2019-01-18T01:22:39.650Z,-72
2019-01-18T01:23:39.537Z,-73
2019-01-18T01:24:39.650Z,-73
2019-01-18T01:25:39.561Z,-74
2019-01-18T01:26:39.653Z,-72
2019-01-18T01:27:39.537Z,-72
2019-01-18T01:28:39.651Z,-72
2019-01-18T01:29:43.012Z,-73
2019-01-18T01:30:39.672Z,-73
2019-01-18T01:31:39.540Z,-72
2019-01-18T01:32:39.648Z,-72
2019-01-18T01:33:39.539Z,-73
2019-01-18T01:34:39.666Z,-72
2019-01-18T01:35:39.568Z,-72
2019-01-18T01:36:39.656Z,-72
2019-01-18T01:37:39.545Z,-72
2019-01-18T01:38:39.655Z,-72
2019-01-18T01:39:39.543Z,-72
2019-01-18T01:40:39.680Z,-72
2019-01-18T01:41:39.548Z,-72
2019-01-18T01:42:39.654Z,-72
2019-01-18T01:43:39.549Z,-72
2019-01-18T01:44:39.660Z,-72
2019-01-18T01:45:39.552Z,-72
2019-01-18T01:46:39.687Z,-72
2019-01-18T01:47:39.552Z,-72
2019-01-18T01:48:39.668Z,-72
2019-01-18T01:49:39.552Z,-73
2019-01-18T01:50:39.664Z,-72
2019-01-18T01:51:39.579Z,-72
2019-01-18T01:52:39.664Z,-72
2019-01-18T01:53:39.556Z,-72
2019-01-18T01:54:39.673Z,-74
2019-01-18T01:55:39.556Z,-75
2019-01-18T01:56:39.700Z,-73
2019-01-18T01:57:39.557Z,-74
2019-01-18T01:58:39.670Z,-74
2019-01-18T01:59:39.559Z,-75
2019-01-18T02:00:39.668Z,-75
2019-01-18T02:01:39.586Z,-75
2019-01-18T02:02:39.676Z,-73
2019-01-18T02:03:39.564Z,-72
2019-01-18T02:04:39.680Z,-72
2019-01-18T02:05:39.564Z,-72
2019-01-18T02:06:39.700Z,-72
2019-01-18T02:07:39.568Z,-71
2019-01-18T02:08:39.677Z,-71
2019-01-18T02:09:39.569Z,-72
2019-01-18T02:10:39.679Z,-71
2019-01-18T02:11:39.591Z,-71
2019-01-18T02:12:39.687Z,-71
2019-01-18T02:13:39.572Z,-71
2019-01-18T02:14:39.680Z,-71
2019-01-18T02:15:39.574Z,-72
2019-01-18T02:16:39.711Z,-71
2019-01-18T02:17:39.574Z,-71
2019-01-18T02:18:39.689Z,-71
2019-01-18T02:19:39.575Z,-71
2019-01-18T02:20:39.692Z,-71
2019-01-18T02:21:39.604Z,-71
2019-01-18T02:22:39.687Z,-70
2019-01-18T02:23:39.581Z,-73
2019-01-18T02:24:39.722Z,-74
2019-01-18T02:25:39.581Z,-75
2019-01-18T02:26:39.717Z,-73
2019-01-18T02:27:39.583Z,-75
2019-01-18T02:28:39.693Z,-73
2019-01-18T02:29:39.583Z,-76
2019-01-18T02:30:39.712Z,-74
2019-01-18T02:31:39.611Z,-74
2019-01-18T02:32:39.715Z,-74
2019-01-18T02:33:39.586Z,-74
2019-01-18T02:34:39.697Z,-72
2019-01-18T02:35:39.587Z,-73
2019-01-18T02:36:39.703Z,-73
2019-01-18T02:37:39.614Z,-74
2019-01-18T02:38:39.710Z,-73
2019-01-18T02:39:39.591Z,-73
2019-01-18T02:40:39.703Z,-73
2019-01-18T02:41:39.595Z,-73
2019-01-18T02:42:39.736Z,-73
2019-01-18T02:43:39.598Z,-73
2019-01-18T02:44:39.710Z,-73
2019-01-18T02:45:39.597Z,-75
2019-01-18T02:46:39.707Z,-74
2019-01-18T02:47:39.624Z,-74
2019-01-18T02:48:39.715Z,-73
2019-01-18T02:49:39.602Z,-73
2019-01-18T02:50:39.711Z,-73
2019-01-18T02:51:39.603Z,-73
2019-01-18T02:52:39.737Z,-72
2019-01-18T02:53:39.606Z,-72
2019-01-18T02:54:39.729Z,-72
2019-01-18T02:55:39.605Z,-73
2019-01-18T02:56:39.714Z,-72
2019-01-18T02:57:39.629Z,-73
2019-01-18T02:58:39.787Z,-72
2019-01-18T02:59:39.606Z,-72
2019-01-18T03:00:39.729Z,-73
2019-01-18T03:01:39.610Z,-72
2019-01-18T03:02:39.747Z,-71
2019-01-18T03:03:39.610Z,-72
2019-01-18T03:04:39.722Z,-72
2019-01-18T03:05:39.610Z,-72
2019-01-18T03:06:39.724Z,-72
2019-01-18T03:07:39.638Z,-72
2019-01-18T03:08:39.727Z,-72
2019-01-18T03:09:39.617Z,-72
2019-01-18T03:10:39.731Z,-73
2019-01-18T03:11:39.629Z,-72
2019-01-18T03:12:39.754Z,-72
2019-01-18T03:13:39.619Z,-72
2019-01-18T03:14:39.732Z,-72
2019-01-18T03:15:39.619Z,-73
2019-01-18T03:16:39.736Z,-72
2019-01-18T03:17:39.647Z,-73
2019-01-18T03:18:39.737Z,-72
2019-01-18T03:19:39.625Z,-72
2019-01-18T03:20:39.736Z,-73
2019-01-18T03:21:39.626Z,-72
2019-01-18T03:22:39.761Z,-72
2019-01-18T03:23:39.625Z,-72
2019-01-18T03:24:39.735Z,-73
2019-01-18T03:25:39.630Z,-73
2019-01-18T03:26:39.740Z,-73
2019-01-18T03:27:39.677Z,-72
2019-01-18T03:28:39.754Z,-72
2019-01-18T03:29:39.631Z,-73
2019-01-18T03:30:39.762Z,-73
2019-01-18T03:31:39.637Z,-73
2019-01-18T03:32:39.778Z,-72
2019-01-18T03:33:39.636Z,-72
2019-01-18T03:34:39.752Z,-72
2019-01-18T03:35:39.635Z,-74
2019-01-18T03:36:39.754Z,-73
2019-01-18T03:37:39.666Z,-73
2019-01-18T03:38:39.751Z,-73
2019-01-18T03:39:39.637Z,-73
2019-01-18T03:40:39.751Z,-73
2019-01-18T03:41:39.640Z,-74
2019-01-18T03:42:39.797Z,-73
2019-01-18T03:43:39.649Z,-74
2019-01-18T03:44:39.762Z,-74
2019-01-18T03:45:39.654Z,-73
2019-01-18T03:46:39.816Z,-72
2019-01-18T03:47:39.646Z,-72
2019-01-18T03:48:39.780Z,-71
2019-01-18T03:49:39.646Z,-71
2019-01-18T03:50:39.763Z,-72
2019-01-18T03:51:39.649Z,-72
2019-01-18T03:52:39.761Z,-71
2019-01-18T03:53:39.676Z,-71
2019-01-18T03:54:39.763Z,-72
2019-01-18T03:55:39.649Z,-73
2019-01-18T03:56:39.767Z,-72
2019-01-18T03:57:39.654Z,-73
2019-01-18T03:58:39.788Z,-71
2019-01-18T03:59:39.658Z,-72
2019-01-18T04:00:39.770Z,-72
2019-01-18T04:01:39.656Z,-71
2019-01-18T04:02:39.771Z,-71
2019-01-18T04:03:39.681Z,-72
2019-01-18T04:04:39.773Z,-71
2019-01-18T04:05:39.662Z,-73
2019-01-18T04:06:39.905Z,-72
2019-01-18T04:07:39.706Z,-75
2019-01-18T04:08:39.800Z,-76
2019-01-18T04:09:39.662Z,-73
2019-01-18T04:10:39.777Z,-73
2019-01-18T04:11:39.665Z,-73
2019-01-18T04:12:39.780Z,-73
2019-01-18T04:13:39.694Z,-73
2019-01-18T04:14:39.782Z,-73
2019-01-18T04:15:39.667Z,-74
2019-01-18T04:16:39.777Z,-73
2019-01-18T04:17:39.667Z,-73
2019-01-18T04:18:39.818Z,-73
2019-01-18T04:19:39.672Z,-73
2019-01-18T04:20:39.780Z,-73
2019-01-18T04:21:39.673Z,-73
2019-01-18T04:22:39.789Z,-73
2019-01-18T04:23:39.699Z,-73
2019-01-18T04:24:39.796Z,-73
2019-01-18T04:25:39.674Z,-75
2019-01-18T04:26:39.789Z,-73
2019-01-18T04:27:39.675Z,-74
2019-01-18T04:28:39.814Z,-73
2019-01-18T04:29:39.685Z,-73
2019-01-18T04:30:39.793Z,-73
2019-01-18T04:31:39.683Z,-73
2019-01-18T04:32:39.795Z,-73
2019-01-18T04:33:39.728Z,-73
2019-01-18T04:34:39.797Z,-72
2019-01-18T04:35:39.683Z,-74
2019-01-18T04:36:39.794Z,-72
2019-01-18T04:37:39.683Z,-74
2019-01-18T04:38:39.805Z,-73
2019-01-18T04:39:39.708Z,-75
2019-01-18T04:40:39.798Z,-73
2019-01-18T04:41:39.691Z,-73
2019-01-18T04:42:39.805Z,-73
2019-01-18T04:43:39.702Z,-73
2019-01-18T04:44:39.833Z,-73
2019-01-18T04:45:39.689Z,-73
2019-01-18T04:46:39.808Z,-72
2019-01-18T04:47:39.694Z,-72
2019-01-18T04:48:39.807Z,-72
2019-01-18T04:49:39.730Z,-72
2019-01-18T04:50:39.806Z,-72
2019-01-18T04:51:39.698Z,-72
2019-01-18T04:52:39.811Z,-72
2019-01-18T04:53:39.701Z,-73
2019-01-18T04:54:39.839Z,-73
2019-01-18T04:55:39.700Z,-74
2019-01-18T04:56:39.814Z,-72
2019-01-18T04:57:39.701Z,-73
2019-01-18T04:58:39.814Z,-72
2019-01-18T04:59:39.726Z,-72
2019-01-18T05:00:41.796Z,-72
2019-01-18T05:01:39.705Z,-73
2019-01-18T05:02:39.818Z,-73
2019-01-18T05:03:39.708Z,-73
2019-01-18T05:04:39.841Z,-73
2019-01-18T05:05:39.717Z,-74
2019-01-18T05:06:39.827Z,-73
2019-01-18T05:07:39.707Z,-73
2019-01-18T05:08:39.816Z,-73
2019-01-18T05:09:39.734Z,-73
2019-01-18T05:10:39.833Z,-73
2019-01-18T05:11:39.710Z,-73
2019-01-18T05:12:39.827Z,-72
2019-01-18T05:13:39.713Z,-72
2019-01-18T05:14:39.856Z,-73
2019-01-18T05:15:39.712Z,-74
2019-01-18T05:16:39.839Z,-72
2019-01-18T05:17:39.721Z,-73
2019-01-18T05:18:39.827Z,-72
2019-01-18T05:19:39.754Z,-72
2019-01-18T05:20:39.834Z,-73
2019-01-18T05:21:39.719Z,-73
2019-01-18T05:22:39.831Z,-73
2019-01-18T05:23:39.722Z,-73
2019-01-18T05:24:39.832Z,-73
2019-01-18T05:25:39.746Z,-73
2019-01-18T05:26:39.831Z,-73
2019-01-18T05:27:39.727Z,-73
2019-01-18T05:28:39.840Z,-72
2019-01-18T05:29:39.724Z,-73
2019-01-18T05:30:39.863Z,-74
2019-01-18T05:31:39.728Z,-74
2019-01-18T05:32:39.841Z,-73
2019-01-18T05:33:39.729Z,-74
2019-01-18T05:34:39.875Z,-72
2019-01-18T05:35:39.765Z,-74
2019-01-18T05:36:39.843Z,-73
2019-01-18T05:37:39.732Z,-74
2019-01-18T05:38:39.846Z,-72
2019-01-18T05:39:39.734Z,-72
2019-01-18T05:40:39.869Z,-70
2019-01-18T05:41:39.733Z,-70
2019-01-18T05:42:39.845Z,-70
2019-01-18T05:43:39.735Z,-71
2019-01-18T05:44:41.217Z,-70
2019-01-18T05:45:39.760Z,-72
2019-01-18T05:46:39.861Z,-70
2019-01-18T05:47:39.741Z,-71
2019-01-18T05:48:39.854Z,-70
2019-01-18T05:49:39.750Z,-71
2019-01-18T05:50:39.879Z,-70
2019-01-18T05:51:39.741Z,-70
2019-01-18T05:52:39.870Z,-70
2019-01-18T05:53:39.746Z,-70
2019-01-18T05:54:39.857Z,-70
2019-01-18T05:55:39.769Z,-71
2019-01-18T05:56:39.861Z,-70
2019-01-18T05:57:39.746Z,-73
2019-01-18T05:58:39.875Z,-71
2019-01-18T05:59:39.749Z,-70
2019-01-18T06:00:39.889Z,-70
2019-01-18T06:01:39.754Z,-70
2019-01-18T06:02:39.860Z,-70
2019-01-18T06:03:39.758Z,-71
2019-01-18T06:04:39.861Z,-70
2019-01-18T06:05:39.779Z,-71
2019-01-18T06:06:39.868Z,-70
2019-01-18T06:07:39.755Z,-70
2019-01-18T06:08:39.868Z,-70
2019-01-18T06:09:39.756Z,-70
2019-01-18T06:10:39.895Z,-70
2019-01-18T06:11:39.764Z,-70
2019-01-18T06:12:39.885Z,-70
2019-01-18T06:13:39.757Z,-70
2019-01-18T06:14:39.870Z,-70
2019-01-18T06:15:40.529Z,-71
2019-01-18T06:16:39.872Z,-70
2019-01-18T06:17:39.762Z,-72
2019-01-18T06:18:39.878Z,-70
2019-01-18T06:19:39.763Z,-71
2019-01-18T06:20:39.903Z,-70
2019-01-18T06:21:39.766Z,-71
2019-01-18T06:22:39.880Z,-71
2019-01-18T06:23:39.770Z,-71
2019-01-18T06:24:39.883Z,-70
2019-01-18T06:25:39.774Z,-71
2019-01-18T06:26:39.906Z,-70
2019-01-18T06:27:39.772Z,-70
2019-01-18T06:28:39.885Z,-70
2019-01-18T06:29:42.555Z,-70
2019-01-18T06:30:39.886Z,-70
2019-01-18T06:31:39.797Z,-71
2019-01-18T06:32:39.885Z,-70
2019-01-18T06:33:39.774Z,-71
2019-01-18T06:34:39.894Z,-69
2019-01-18T06:35:39.776Z,-70
2019-01-18T06:36:39.919Z,-70
2019-01-18T06:37:39.780Z,-70
2019-01-18T06:38:40.054Z,-70
2019-01-18T06:39:39.781Z,-70
2019-01-18T06:40:39.890Z,-71
2019-01-18T06:41:39.804Z,-70
2019-01-18T06:42:39.897Z,-70
2019-01-18T06:43:39.784Z,-70
2019-01-18T06:44:39.898Z,-70
2019-01-18T06:45:39.786Z,-71
2019-01-18T06:46:39.921Z,-70
2019-01-18T06:47:39.785Z,-71
2019-01-18T06:48:39.907Z,-70
2019-01-18T06:49:39.786Z,-71
2019-01-18T06:50:39.901Z,-70
2019-01-18T06:51:39.815Z,-70
2019-01-18T06:52:39.899Z,-70
2019-01-18T06:53:39.790Z,-70
2019-01-18T06:54:39.907Z,-69
2019-01-18T06:55:39.793Z,-71
2019-01-18T06:56:39.971Z,-70
2019-01-18T06:57:39.796Z,-70
2019-01-18T06:58:39.907Z,-70
2019-01-18T06:59:39.793Z,-71
2019-01-18T07:00:39.915Z,-70
2019-01-18T07:01:39.819Z,-70
2019-01-18T07:02:39.949Z,-70
2019-01-18T07:03:39.798Z,-71
2019-01-18T07:04:42.453Z,-71
2019-01-18T07:05:39.800Z,-71
2019-01-18T07:06:39.939Z,-70
2019-01-18T07:07:39.803Z,-70
2019-01-18T07:08:39.914Z,-70
2019-01-18T07:09:39.802Z,-70
2019-01-18T07:10:39.914Z,-70
2019-01-18T07:11:39.828Z,-70
2019-01-18T07:12:39.918Z,-70
2019-01-18T07:13:39.809Z,-71
2019-01-18T07:14:39.921Z,-70
2019-01-18T07:15:39.810Z,-71
2019-01-18T07:16:39.946Z,-69
2019-01-18T07:17:39.811Z,-70
2019-01-18T07:18:39.923Z,-70
2019-01-18T07:19:39.809Z,-70
2019-01-18T07:20:39.918Z,-70
2019-01-18T07:21:39.837Z,-69
2019-01-18T07:22:39.924Z,-70
2019-01-18T07:23:39.813Z,-69
2019-01-18T07:24:39.960Z,-69
2019-01-18T07:25:39.814Z,-71
2019-01-18T07:26:39.948Z,-69
2019-01-18T07:27:39.816Z,-70
2019-01-18T07:28:39.925Z,-70
2019-01-18T07:29:39.819Z,-70
2019-01-18T07:30:39.927Z,-69
2019-01-18T07:31:39.844Z,-70
2019-01-18T07:32:39.934Z,-69
2019-01-18T07:33:39.829Z,-69
2019-01-18T07:34:40.188Z,-70
2019-01-18T07:35:39.992Z,-71
2019-01-18T07:36:40.253Z,-70
2019-01-18T07:37:40.006Z,-69
2019-01-18T07:38:40.096Z,-70
2019-01-18T07:39:40.017Z,-70
2019-01-18T07:40:40.020Z,-70
2019-01-18T07:41:48.794Z,-69
2019-01-18T07:42:39.940Z,-70
2019-01-18T07:43:39.830Z,-70
2019-01-18T07:44:39.945Z,-69
2019-01-18T07:45:39.831Z,-71
2019-01-18T07:46:39.970Z,-70
2019-01-18T07:47:39.832Z,-70
2019-01-18T07:48:39.945Z,-70
2019-01-18T07:49:39.833Z,-70
2019-01-18T07:50:39.950Z,-70
2019-01-18T07:51:39.861Z,-70
2019-01-18T07:52:39.948Z,-70
2019-01-18T07:53:39.837Z,-70
2019-01-18T07:54:39.949Z,-69
2019-01-18T07:55:39.839Z,-71
2019-01-18T07:56:39.976Z,-70
2019-01-18T07:57:39.838Z,-70
2019-01-18T07:58:39.954Z,-69
2019-01-18T07:59:39.841Z,-70
2019-01-18T08:00:39.953Z,-69
2019-01-18T08:01:39.872Z,-71
2019-01-18T08:02:39.953Z,-70
2019-01-18T08:03:39.845Z,-71
2019-01-18T08:04:39.956Z,-70
2019-01-18T08:05:39.848Z,-71
2019-01-18T08:06:40.024Z,-70
2019-01-18T08:07:39.846Z,-70
2019-01-18T08:08:39.965Z,-70
2019-01-18T08:09:39.848Z,-70
2019-01-18T08:10:39.959Z,-69
2019-01-18T08:11:39.876Z,-71
2019-01-18T08:12:39.963Z,-69
2019-01-18T08:13:39.851Z,-70
2019-01-18T08:14:39.965Z,-70
2019-01-18T08:15:39.856Z,-71
2019-01-18T08:16:39.995Z,-71
2019-01-18T08:17:39.854Z,-70
2019-01-18T08:18:39.974Z,-70
2019-01-18T08:19:39.858Z,-70
2019-01-18T08:20:39.970Z,-70
2019-01-18T08:21:39.889Z,-70
2019-01-18T08:22:39.971Z,-69
2019-01-18T08:23:39.862Z,-70
2019-01-18T08:24:39.972Z,-70
2019-01-18T08:25:39.862Z,-71
2019-01-18T08:26:40.003Z,-70
2019-01-18T08:27:39.862Z,-70
2019-01-18T08:28:39.975Z,-70
2019-01-18T08:29:39.866Z,-70
2019-01-18T08:30:39.980Z,-70
2019-01-18T08:31:39.892Z,-70
2019-01-18T08:32:39.981Z,-70
2019-01-18T08:33:39.868Z,-69
2019-01-18T08:34:39.987Z,-69
2019-01-18T08:35:39.868Z,-71
2019-01-18T08:36:40.002Z,-70
2019-01-18T08:37:39.872Z,-70
2019-01-18T08:38:39.982Z,-69
2019-01-18T08:39:39.872Z,-69
2019-01-18T08:40:39.981Z,-70
2019-01-18T08:41:39.917Z,-70
2019-01-18T08:42:39.985Z,-69
2019-01-18T08:43:39.875Z,-69
2019-01-18T08:44:39.990Z,-69
2019-01-18T08:45:39.878Z,-71
2019-01-18T08:46:39.991Z,-70
2019-01-18T08:47:39.905Z,-69
2019-01-18T08:48:39.991Z,-69
2019-01-18T08:49:39.884Z,-70
2019-01-18T08:50:39.994Z,-69
2019-01-18T08:51:39.883Z,-71
2019-01-18T08:52:40.016Z,-69
2019-01-18T08:53:39.882Z,-70
2019-01-18T08:54:39.999Z,-70
2019-01-18T08:55:39.884Z,-71
2019-01-18T08:56:40.001Z,-70
2019-01-18T08:57:39.910Z,-70
2019-01-18T08:58:39.997Z,-69
2019-01-18T08:59:39.888Z,-70
2019-01-18T09:00:40.018Z,-69
2019-01-18T09:01:39.891Z,-69
2019-01-18T09:02:40.027Z,-70
2019-01-18T09:03:39.893Z,-70
2019-01-18T09:04:40.003Z,-69
2019-01-18T09:05:39.893Z,-70
2019-01-18T09:06:40.006Z,-69
2019-01-18T09:07:39.919Z,-70
2019-01-18T09:08:40.005Z,-69
2019-01-18T09:09:39.895Z,-70
2019-01-18T09:10:40.010Z,-70
2019-01-18T09:11:39.899Z,-70
2019-01-18T09:12:40.038Z,-69
2019-01-18T09:13:39.901Z,-69
2019-01-18T09:14:40.010Z,-70
2019-01-18T09:15:39.902Z,-69
2019-01-18T09:16:40.016Z,-69
2019-01-18T09:17:39.924Z,-69
2019-01-18T09:18:40.013Z,-69
2019-01-18T09:19:39.902Z,-69
2019-01-18T09:20:40.022Z,-69
2019-01-18T09:21:39.904Z,-69
2019-01-18T09:22:40.040Z,-69
2019-01-18T09:23:39.906Z,-69
2019-01-18T09:24:40.016Z,-69
2019-01-18T09:25:39.907Z,-70
2019-01-18T09:26:40.021Z,-69
2019-01-18T09:27:39.935Z,-70
2019-01-18T09:28:40.025Z,-69
2019-01-18T09:29:39.913Z,-70
2019-01-18T09:30:40.024Z,-69
2019-01-18T09:31:42.525Z,-70
2019-01-18T09:32:40.243Z,-69
2019-01-18T09:33:39.913Z,-69
2019-01-18T09:34:40.031Z,-69
2019-01-18T09:35:39.916Z,-70
2019-01-18T09:36:40.031Z,-69
2019-01-18T09:37:39.916Z,-69
2019-01-18T09:38:40.051Z,-69
2019-01-18T09:39:39.921Z,-70
2019-01-18T09:40:40.078Z,-69
2019-01-18T09:41:39.920Z,-70
2019-01-18T09:42:40.036Z,-69
2019-01-18T09:43:39.946Z,-70
2019-01-18T09:44:40.036Z,-69
2019-01-18T09:45:39.926Z,-70
2019-01-18T09:46:40.040Z,-69
2019-01-18T09:47:39.926Z,-69
2019-01-18T09:48:40.058Z,-69
2019-01-18T09:49:39.928Z,-69
2019-01-18T09:50:40.041Z,-69
2019-01-18T09:51:40.013Z,-69
2019-01-18T09:52:40.719Z,-69
2019-01-18T09:53:39.954Z,-69
2019-01-18T09:54:40.044Z,-69
2019-01-18T09:55:39.932Z,-70
2019-01-18T09:56:40.043Z,-69
2019-01-18T09:57:39.933Z,-70
2019-01-18T09:58:40.071Z,-69
2019-01-18T09:59:39.934Z,-69
2019-01-18T10:00:40.047Z,-69
2019-01-18T10:01:39.935Z,-70
2019-01-18T10:02:40.049Z,-69
2019-01-18T10:03:39.963Z,-69
2019-01-18T10:04:40.048Z,-69
2019-01-18T10:05:39.940Z,-69
2019-01-18T10:06:40.053Z,-69
2019-01-18T10:07:39.942Z,-69
2019-01-18T10:08:40.082Z,-69
2019-01-18T10:09:39.941Z,-69
2019-01-18T10:10:40.059Z,-70
2019-01-18T10:11:39.943Z,-69
2019-01-18T10:12:40.058Z,-69
2019-01-18T10:13:39.973Z,-70
2019-01-18T10:14:40.107Z,-69
2019-01-18T10:15:39.945Z,-70
2019-01-18T10:16:40.060Z,-69
2019-01-18T10:17:39.947Z,-69
2019-01-18T10:18:40.087Z,-69
2019-01-18T10:19:39.949Z,-69
2019-01-18T10:20:40.069Z,-69
2019-01-18T10:21:39.953Z,-69
2019-01-18T10:22:40.064Z,-69
2019-01-18T10:23:39.980Z,-69
2019-01-18T10:24:40.069Z,-69
2019-01-18T10:25:39.954Z,-69
2019-01-18T10:26:40.064Z,-69
2019-01-18T10:27:39.956Z,-70
2019-01-18T10:28:40.093Z,-69
2019-01-18T10:29:39.958Z,-70
2019-01-18T10:30:40.068Z,-69
2019-01-18T10:31:39.958Z,-69
2019-01-18T10:32:40.077Z,-69
2019-01-18T10:33:39.984Z,-68
2019-01-18T10:34:40.072Z,-69
2019-01-18T10:35:39.966Z,-69
2019-01-18T10:36:40.078Z,-69
2019-01-18T10:37:39.965Z,-69
2019-01-18T10:38:40.108Z,-68
2019-01-18T10:39:39.968Z,-69
2019-01-18T10:40:40.074Z,-69
2019-01-18T10:41:39.966Z,-69
2019-01-18T10:42:40.077Z,-69
2019-01-18T10:43:40.015Z,-69
2019-01-18T10:44:40.086Z,-69
2019-01-18T10:45:39.973Z,-69
2019-01-18T10:46:40.081Z,-69
2019-01-18T10:47:39.973Z,-69
2019-01-18T10:48:40.082Z,-68
2019-01-18T10:49:39.999Z,-69
2019-01-18T10:50:40.092Z,-69
2019-01-18T10:51:39.983Z,-69
2019-01-18T10:52:40.090Z,-68
2019-01-18T10:53:39.976Z,-70
2019-01-18T10:54:40.114Z,-69
2019-01-18T10:55:39.978Z,-70
2019-01-18T10:56:40.093Z,-69
2019-01-18T10:57:39.979Z,-69
2019-01-18T10:58:40.090Z,-69
2019-01-18T10:59:40.003Z,-70
2019-01-18T11:00:40.095Z,-68
2019-01-18T11:01:39.983Z,-69
2019-01-18T11:02:40.096Z,-69
2019-01-18T11:03:39.987Z,-69
2019-01-18T11:04:40.125Z,-69
2019-01-18T11:05:39.985Z,-69
2019-01-18T11:06:40.107Z,-69
2019-01-18T11:07:39.989Z,-69
2019-01-18T11:08:40.102Z,-69
2019-01-18T11:09:40.021Z,-69
2019-01-18T11:10:40.102Z,-68
2019-01-18T11:11:39.993Z,-69
2019-01-18T11:12:40.100Z,-69
2019-01-18T11:13:39.994Z,-68
2019-01-18T11:14:40.126Z,-68
2019-01-18T11:15:39.993Z,-69
2019-01-18T11:16:40.109Z,-69
2019-01-18T11:17:39.997Z,-69
2019-01-18T11:18:40.108Z,-69
2019-01-18T11:19:40.023Z,-69
2019-01-18T11:20:40.114Z,-68
2019-01-18T11:21:39.998Z,-69
2019-01-18T11:22:40.148Z,-69
2019-01-18T11:23:40.000Z,-69
2019-01-18T11:24:40.138Z,-68
2019-01-18T11:25:40.001Z,-68
2019-01-18T11:26:40.111Z,-69
2019-01-18T11:27:40.007Z,-69
2019-01-18T11:28:40.119Z,-68
2019-01-18T11:29:40.063Z,-69
2019-01-18T11:30:40.122Z,-69
2019-01-18T11:31:40.008Z,-69
2019-01-18T11:32:40.116Z,-68
2019-01-18T11:33:40.011Z,-69
2019-01-18T11:34:40.120Z,-68
2019-01-18T11:35:40.032Z,-70
2019-01-18T11:36:40.120Z,-69
2019-01-18T11:37:40.011Z,-69
2019-01-18T11:38:40.130Z,-69
2019-01-18T11:39:40.016Z,-68
2019-01-18T11:40:40.161Z,-69
2019-01-18T11:41:40.014Z,-69
2019-01-18T11:42:40.131Z,-68
2019-01-18T11:43:40.016Z,-69
2019-01-18T11:44:40.125Z,-69
2019-01-18T11:45:40.043Z,-69
2019-01-18T11:46:40.135Z,-69
2019-01-18T11:47:40.021Z,-69
2019-01-18T11:48:40.135Z,-69
2019-01-18T11:49:40.023Z,-69
2019-01-18T11:50:40.157Z,-69
2019-01-18T11:51:40.024Z,-69
2019-01-18T11:52:40.130Z,-69
2019-01-18T11:53:40.880Z,-69
2019-01-18T11:54:44.339Z,-69
2019-01-18T11:55:40.052Z,-69
2019-01-18T11:56:40.135Z,-69
2019-01-18T11:57:40.030Z,-69
2019-01-18T11:58:40.143Z,-69
2019-01-18T11:59:40.031Z,-69
2019-01-18T12:00:40.166Z,-68
2019-01-18T12:01:40.031Z,-68
2019-01-18T12:02:40.144Z,-69
2019-01-18T12:03:40.033Z,-69
2019-01-18T12:04:40.144Z,-69
2019-01-18T12:05:40.059Z,-69
2019-01-18T12:06:40.149Z,-69
2019-01-18T12:07:40.045Z,-69
2019-01-18T12:08:42.173Z,-69
2019-01-18T12:09:40.035Z,-69
2019-01-18T12:10:40.173Z,-69
2019-01-18T12:11:40.042Z,-69
2019-01-18T12:12:40.155Z,-68
2019-01-18T12:13:40.045Z,-69
2019-01-18T12:14:40.150Z,-69
2019-01-18T12:15:40.068Z,-69
2019-01-18T12:16:40.154Z,-69
2019-01-18T12:17:40.042Z,-70
2019-01-18T12:18:40.155Z,-69
2019-01-18T12:19:40.046Z,-69
2019-01-18T12:20:40.182Z,-69
2019-01-18T12:21:40.045Z,-69
2019-01-18T12:22:40.157Z,-69
2019-01-18T12:23:40.092Z,-69
2019-01-18T12:24:40.162Z,-69
2019-01-18T12:25:40.074Z,-69
2019-01-18T12:26:40.164Z,-69
2019-01-18T12:27:40.053Z,-69
2019-01-18T12:28:40.163Z,-69
2019-01-18T12:29:40.054Z,-69
2019-01-18T12:30:40.194Z,-68
2019-01-18T12:31:40.060Z,-68
2019-01-18T12:32:40.192Z,-68
2019-01-18T12:33:40.054Z,-69
2019-01-18T12:34:40.168Z,-68
2019-01-18T12:35:40.126Z,-69
2019-01-18T12:36:40.172Z,-69
2019-01-18T12:37:40.058Z,-69
2019-01-18T12:38:40.176Z,-69
2019-01-18T12:39:40.062Z,-69
2019-01-18T12:40:40.194Z,-69
2019-01-18T12:41:40.061Z,-69
2019-01-18T12:42:40.180Z,-69
2019-01-18T12:43:40.066Z,-69
2019-01-18T12:44:40.182Z,-69
2019-01-18T12:45:40.089Z,-69
2019-01-18T12:46:40.178Z,-69
2019-01-18T12:47:40.065Z,-69
2019-01-18T12:48:40.180Z,-69
2019-01-18T12:49:40.067Z,-69
2019-01-18T12:50:40.199Z,-69
2019-01-18T12:51:40.069Z,-69
2019-01-18T12:52:40.181Z,-68
2019-01-18T12:53:40.071Z,-69
2019-01-18T12:54:40.182Z,-69
2019-01-18T12:55:40.110Z,-69
2019-01-18T12:56:40.214Z,-69
2019-01-18T12:57:40.074Z,-69
2019-01-18T12:58:40.187Z,-68
2019-01-18T12:59:40.078Z,-69
2019-01-18T13:00:40.189Z,-69
2019-01-18T13:01:40.101Z,-70
2019-01-18T13:02:40.195Z,-68
2019-01-18T13:03:40.077Z,-70
2019-01-18T13:04:40.186Z,-69
2019-01-18T13:05:40.079Z,-69
2019-01-18T13:06:40.220Z,-69
2019-01-18T13:07:40.083Z,-69
2019-01-18T13:08:40.197Z,-68
2019-01-18T13:09:40.083Z,-69
2019-01-18T13:10:40.616Z,-69
2019-01-18T13:11:40.128Z,-69
2019-01-18T13:12:40.193Z,-69
2019-01-18T13:13:40.091Z,-69
2019-01-18T13:14:40.203Z,-68
2019-01-18T13:15:40.090Z,-69
2019-01-18T13:16:40.229Z,-69
2019-01-18T13:17:40.093Z,-69
2019-01-18T13:18:40.209Z,-69
2019-01-18T13:19:40.092Z,-69
2019-01-18T13:20:40.202Z,-69
2019-01-18T13:21:40.115Z,-69
2019-01-18T13:22:40.208Z,-69
2019-01-18T13:23:40.097Z,-69
2019-01-18T13:24:40.205Z,-69
2019-01-18T13:25:40.097Z,-69
2019-01-18T13:26:40.237Z,-69
2019-01-18T13:27:40.099Z,-69
2019-01-18T13:28:40.236Z,-69
2019-01-18T13:29:40.099Z,-69
2019-01-18T13:30:40.219Z,-69
2019-01-18T13:31:40.127Z,-69
2019-01-18T13:32:41.976Z,-69
2019-01-18T13:33:40.102Z,-69
2019-01-18T13:34:40.221Z,-69
2019-01-18T13:35:40.108Z,-70
2019-01-18T13:36:40.244Z,-69
2019-01-18T13:37:40.105Z,-69
2019-01-18T13:38:40.233Z,-69
2019-01-18T13:39:40.108Z,-69
2019-01-18T13:40:40.223Z,-68
2019-01-18T13:41:40.135Z,-69
2019-01-18T13:42:40.228Z,-69
2019-01-18T13:43:40.112Z,-69
2019-01-18T13:44:43.996Z,-69
2019-01-18T13:45:40.112Z,-69
2019-01-18T13:46:40.271Z,-69